Time;durP1;ratioP1;P1;durP2;ratioP2;P2;SDS_P1;SDS_P2;PMS_P1;PMS_P2;Temp;Humidity;BMP_temperature;BMP_pressure;BME280_temperature;BME280_humidity;BME280_pressure;Samples;Min_cycle;Max_cycle;Signal;HPM_P1;HPM_P2
2021/11/26 00:01:39;;;;;;;31.97;18.37;;;5.20;99.90;;;;;;5051829;28;20261;-64
2021/11/26 00:04:07;;;;;;;31.60;17.93;;;5.30;99.90;;;;;;5051800;28;20259;-64
2021/11/26 00:06:33;;;;;;;32.87;17.43;;;5.30;99.90;;;;;;5051737;28;20588;-64
2021/11/26 00:09:00;;;;;;;26.10;17.17;;;5.30;99.90;;;;;;5051259;28;20195;-65
2021/11/26 00:11:26;;;;;;;29.83;17.47;;;5.40;99.90;;;;;;5051618;28;20254;-64
2021/11/26 00:14:04;;;;;;;27.63;17.20;;;5.40;99.90;;;;;;5051747;28;20171;-64
2021/11/26 00:16:37;;;;;;;30.07;18.47;;;5.40;99.90;;;;;;5051926;28;20277;-64
2021/11/26 00:19:05;;;;;;;27.17;17.20;;;5.40;99.90;;;;;;5051074;28;20202;-64
2021/11/26 00:21:33;;;;;;;30.33;17.73;;;5.40;99.90;;;;;;5050242;28;20185;-64
2021/11/26 00:23:58;;;;;;;29.67;18.47;;;5.40;99.90;;;;;;5051532;28;20171;-65
2021/11/26 00:26:24;;;;;;;25.83;16.93;;;5.50;99.90;;;;;;5051455;28;20741;-65
2021/11/26 00:28:50;;;;;;;33.03;20.33;;;5.60;99.90;;;;;;5051388;28;20195;-65
2021/11/26 00:31:15;;;;;;;29.50;18.13;;;5.50;99.90;;;;;;5049823;28;20182;-64
2021/11/26 00:33:41;;;;;;;31.20;19.37;;;5.40;99.90;;;;;;5051409;28;20171;-65
2021/11/26 00:36:07;;;;;;;28.97;19.43;;;5.40;99.90;;;;;;5051768;28;20174;-64
2021/11/26 00:38:32;;;;;;;31.13;19.60;;;5.40;99.90;;;;;;5051238;28;20325;-65
2021/11/26 00:40:58;;;;;;;33.17;20.30;;;5.30;99.90;;;;;;5050925;28;20727;-64
2021/11/26 00:43:24;;;;;;;40.77;20.43;;;5.30;99.90;;;;;;5051449;28;20171;-64
2021/11/26 00:45:50;;;;;;;33.17;21.53;;;5.30;99.90;;;;;;5051237;28;20202;-65
2021/11/26 00:48:15;;;;;;;40.00;21.00;;;5.30;99.90;;;;;;5051310;28;20278;-65
2021/11/26 00:50:41;;;;;;;34.67;19.77;;;5.30;99.90;;;;;;5050865;28;20189;-65
2021/11/26 00:53:07;;;;;;;39.53;20.30;;;5.30;99.90;;;;;;5051224;28;20533;-64
2021/11/26 00:55:33;;;;;;;33.77;20.27;;;5.40;99.90;;;;;;5050874;28;20548;-65
2021/11/26 00:57:58;;;;;;;33.37;20.57;;;5.40;99.90;;;;;;5051121;28;20212;-64
2021/11/26 01:00:24;;;;;;;32.63;20.77;;;5.30;99.90;;;;;;5050919;28;20478;-65
2021/11/26 01:02:50;;;;;;;42.07;21.40;;;5.30;99.90;;;;;;5051373;28;20167;-64
2021/11/26 01:05:16;;;;;;;34.90;20.87;;;5.30;99.90;;;;;;5050452;28;20222;-65
2021/11/26 01:07:42;;;;;;;34.33;19.73;;;5.20;99.90;;;;;;5051141;28;20194;-64
2021/11/26 01:10:12;;;;;;;38.47;21.80;;;5.20;99.90;;;;;;5049637;28;20179;-65
2021/11/26 01:12:37;;;;;;;38.83;20.33;;;5.20;99.90;;;;;;5051333;28;20644;-64
2021/11/26 01:15:06;;;;;;;38.27;21.33;;;5.20;99.90;;;;;;5050816;28;20177;-64
2021/11/26 01:17:31;;;;;;;35.43;19.93;;;5.20;99.90;;;;;;5050062;28;20183;-64
2021/11/26 01:19:57;;;;;;;41.70;21.80;;;5.20;99.90;;;;;;5050636;28;20171;-64
2021/11/26 01:22:23;;;;;;;40.77;19.80;;;5.20;99.90;;;;;;5051165;28;20253;-64
2021/11/26 01:24:48;;;;;;;41.93;24.03;;;5.20;99.90;;;;;;5053857;28;20520;-64
2021/11/26 01:27:14;;;;;;;38.23;23.10;;;5.20;99.90;;;;;;5054304;28;20750;-64
2021/11/26 01:29:40;;;;;;;32.90;20.30;;;5.20;99.90;;;;;;5054072;28;20175;-64
2021/11/26 01:32:06;;;;;;;39.97;22.50;;;5.30;99.90;;;;;;5054445;28;20507;-64
2021/11/26 01:34:32;;;;;;;39.17;22.07;;;5.30;99.90;;;;;;5053957;28;20172;-64
2021/11/26 01:36:58;;;;;;;38.07;21.03;;;5.30;99.90;;;;;;5054168;28;20167;-64
2021/11/26 01:39:24;;;;;;;39.33;20.53;;;5.20;99.90;;;;;;5053724;28;20584;-64
2021/11/26 01:41:51;;;;;;;40.57;22.10;;;5.20;99.90;;;;;;5053577;28;20593;-65
2021/11/26 01:44:17;;;;;;;33.30;19.83;;;5.20;99.90;;;;;;5053639;28;20179;-64
2021/11/26 01:46:43;;;;;;;38.77;20.63;;;5.10;99.90;;;;;;5053966;28;20683;-64
2021/11/26 01:49:10;;;;;;;36.23;20.37;;;5.10;99.90;;;;;;5053428;28;20222;-64
2021/11/26 01:51:35;;;;;;;32.40;19.53;;;5.10;99.90;;;;;;5052700;28;20239;-64
2021/11/26 01:54:03;;;;;;;27.63;18.63;;;5.10;99.90;;;;;;5053715;28;20632;-64
2021/11/26 01:56:28;;;;;;;34.90;20.03;;;5.10;99.90;;;;;;5053843;28;20262;-64
2021/11/26 01:58:55;;;;;;;27.73;20.43;;;5.00;99.90;;;;;;5053761;28;20329;-64
2021/11/26 02:01:21;;;;;;;35.77;20.93;;;5.00;99.90;;;;;;5053491;28;20178;-64
2021/11/26 02:03:47;;;;;;;31.63;18.50;;;4.90;99.90;;;;;;5053727;28;20536;-64
2021/11/26 02:06:13;;;;;;;28.53;19.60;;;4.90;99.90;;;;;;5054486;28;20203;-64
2021/11/26 02:08:38;;;;;;;31.23;18.93;;;4.90;99.90;;;;;;5053502;28;20198;-64
2021/11/26 02:13:39;;;;;;;23.97;18.07;;;4.70;99.90;;;;;;5570897;22;20310;-64
2021/11/26 02:16:06;;;;;;;35.97;19.07;;;4.70;99.90;;;;;;5014333;28;20251;-64
2021/11/26 02:18:32;;;;;;;33.17;18.23;;;4.70;99.90;;;;;;5014058;28;20192;-64
2021/11/26 02:20:58;;;;;;;33.17;18.20;;;4.70;99.90;;;;;;4998088;28;20647;-64
2021/11/26 02:23:24;;;;;;;25.30;17.27;;;4.70;99.90;;;;;;5022885;28;20191;-65
2021/11/26 02:25:50;;;;;;;27.53;18.07;;;4.70;99.90;;;;;;5016391;28;20549;-64
2021/11/26 02:28:18;;;;;;;31.50;16.90;;;4.70;99.90;;;;;;5014580;28;20172;-65
2021/11/26 02:30:44;;;;;;;21.73;16.03;;;4.70;99.90;;;;;;5029298;28;20179;-64
2021/11/26 02:33:19;;;;;;;28.37;16.50;;;4.70;99.90;;;;;;5033061;28;20219;-64
2021/11/26 02:35:47;;;;;;;24.20;17.07;;;4.80;99.90;;;;;;5016473;28;20190;-65
2021/11/26 02:38:13;;;;;;;25.30;17.43;;;4.80;99.90;;;;;;5013696;28;20234;-64
2021/11/26 02:40:41;;;;;;;25.20;17.63;;;4.80;99.90;;;;;;5027073;28;20894;-64
2021/11/26 02:43:08;;;;;;;24.07;15.87;;;4.90;99.90;;;;;;5032603;28;20260;-65
2021/11/26 02:45:33;;;;;;;23.73;17.17;;;4.90;99.90;;;;;;5019478;28;20285;-65
2021/11/26 02:47:59;;;;;;;22.90;17.40;;;4.90;99.90;;;;;;5012839;28;20259;-65
2021/11/26 02:50:27;;;;;;;30.27;18.70;;;4.90;99.90;;;;;;5030768;28;20242;-65
2021/11/26 02:52:53;;;;;;;27.47;18.40;;;4.90;99.90;;;;;;5030888;28;20206;-65
2021/11/26 02:55:23;;;;;;;21.03;16.07;;;5.00;99.90;;;;;;5031297;28;20255;-64
2021/11/26 02:57:49;;;;;;;19.23;17.17;;;5.00;99.90;;;;;;5028858;28;20184;-64
2021/11/26 03:00:17;;;;;;;24.57;16.23;;;4.90;99.90;;;;;;5024458;28;20190;-64
2021/11/26 03:02:43;;;;;;;27.97;17.47;;;5.00;99.90;;;;;;5030177;28;20207;-64
2021/11/26 03:05:10;;;;;;;23.00;17.83;;;5.00;99.90;;;;;;5012587;28;20649;-64
2021/11/26 03:07:35;;;;;;;28.10;16.77;;;5.00;99.90;;;;;;5014010;28;20174;-68
2021/11/26 03:10:02;;;;;;;25.67;17.03;;;5.00;99.90;;;;;;5033869;28;20259;-69
2021/11/26 03:12:28;;;;;;;17.77;13.57;;;5.00;99.90;;;;;;5031720;28;20172;-70
2021/11/26 03:14:53;;;;;;;19.97;16.20;;;5.00;99.90;;;;;;5015233;28;20196;-69
2021/11/26 03:17:20;;;;;;;22.53;16.53;;;5.10;99.90;;;;;;5013824;28;20546;-70
2021/11/26 03:19:46;;;;;;;15.50;13.90;;;5.10;99.90;;;;;;5030313;28;20486;-66
2021/11/26 03:22:12;;;;;;;23.20;15.47;;;5.10;99.90;;;;;;5033643;28;20226;-69
2021/11/26 03:24:38;;;;;;;19.13;15.77;;;5.10;99.90;;;;;;5017109;28;20688;-70
2021/11/26 03:27:04;;;;;;;21.47;15.10;;;5.10;99.90;;;;;;5013489;28;20640;-71
2021/11/26 03:29:30;;;;;;;23.47;15.40;;;5.10;99.90;;;;;;5025532;28;20184;-71
2021/11/26 03:31:57;;;;;;;25.83;15.10;;;5.10;99.90;;;;;;5033503;28;20180;-71
2021/11/26 03:34:22;;;;;;;20.50;15.60;;;5.10;99.90;;;;;;5021405;28;20602;-73
2021/11/26 03:36:48;;;;;;;24.60;15.13;;;5.10;99.90;;;;;;5013773;28;20172;-68
2021/11/26 03:39:14;;;;;;;23.73;16.40;;;5.10;99.90;;;;;;5022880;28;20198;-70
2021/11/26 03:41:40;;;;;;;23.87;15.30;;;5.10;99.90;;;;;;5033136;28;20679;-71
2021/11/26 03:44:06;;;;;;;23.17;14.93;;;5.10;99.90;;;;;;5024646;28;20208;-71
2021/11/26 03:46:32;;;;;;;16.60;14.30;;;5.10;99.90;;;;;;5013138;28;20691;-68
2021/11/26 03:48:57;;;;;;;17.10;14.37;;;5.10;99.90;;;;;;5019958;28;20234;-67
2021/11/26 03:51:23;;;;;;;12.13;10.80;;;5.00;99.90;;;;;;5032763;28;20183;-72
2021/11/26 03:53:49;;;;;;;17.70;14.20;;;5.00;99.90;;;;;;5026385;28;20203;-69
2021/11/26 03:56:15;;;;;;;21.70;15.97;;;5.00;99.90;;;;;;5013506;28;20597;-66
2021/11/26 03:58:40;;;;;;;19.23;14.30;;;5.00;99.90;;;;;;5015975;28;20664;-68
2021/11/26 04:01:06;;;;;;;22.80;15.97;;;5.10;99.90;;;;;;5032746;28;20187;-69
2021/11/26 04:03:31;;;;;;;19.57;15.43;;;5.10;99.90;;;;;;5016482;28;20242;-70
2021/11/26 04:05:57;;;;;;;19.53;15.50;;;5.10;99.90;;;;;;5012012;28;20203;-70
2021/11/26 04:08:23;;;;;;;19.83;17.10;;;5.10;99.90;;;;;;5024730;28;20189;-72
2021/11/26 04:10:48;;;;;;;22.67;15.90;;;5.10;99.90;;;;;;5032330;28;20179;-70
2021/11/26 04:13:17;;;;;;;20.33;16.37;;;5.10;99.90;;;;;;5020900;28;20672;-70
2021/11/26 04:15:43;;;;;;;20.30;14.97;;;5.10;99.90;;;;;;5012786;28;20198;-69
2021/11/26 04:18:08;;;;;;;23.90;17.30;;;5.10;99.90;;;;;;5022419;28;20217;-67
2021/11/26 04:20:35;;;;;;;18.57;15.07;;;5.00;99.90;;;;;;5032711;28;20262;-68
2021/11/26 04:23:02;;;;;;;19.47;16.47;;;5.00;99.90;;;;;;5024324;28;20200;-70
2021/11/26 04:25:29;;;;;;;19.20;16.97;;;5.00;99.90;;;;;;5012652;28;20207;-69
2021/11/26 04:27:56;;;;;;;16.57;14.37;;;5.10;99.90;;;;;;5019070;28;20237;-69
2021/11/26 04:30:23;;;;;;;17.43;13.67;;;5.10;99.90;;;;;;5031301;28;20573;-68
2021/11/26 04:32:50;;;;;;;16.80;15.03;;;5.10;99.90;;;;;;5026935;28;20261;-68
2021/11/26 04:35:16;;;;;;;18.73;15.97;;;5.10;99.90;;;;;;5012505;28;20540;-72
2021/11/26 04:37:42;;;;;;;20.90;15.77;;;5.10;99.90;;;;;;5015690;28;20188;-68
2021/11/26 04:40:11;;;;;;;18.70;15.93;;;5.00;99.90;;;;;;5031698;28;20175;-70
2021/11/26 04:42:37;;;;;;;21.47;15.17;;;4.90;99.90;;;;;;5030371;28;20192;-69
2021/11/26 04:45:05;;;;;;;21.10;15.77;;;4.90;99.90;;;;;;5032427;28;20180;-68
2021/11/26 04:47:31;;;;;;;17.23;15.53;;;4.90;99.90;;;;;;5031345;28;20663;-73
2021/11/26 04:49:57;;;;;;;20.10;15.60;;;4.90;99.90;;;;;;5032700;28;20183;-71
2021/11/26 04:52:23;;;;;;;20.33;15.87;;;4.90;99.90;;;;;;5031179;28;20175;-67
2021/11/26 04:54:48;;;;;;;25.43;16.20;;;4.90;99.90;;;;;;4991818;28;20535;-65
2021/11/26 04:57:14;;;;;;;20.10;15.27;;;4.90;99.90;;;;;;4991713;28;20192;-65
2021/11/26 04:59:39;;;;;;;18.20;15.80;;;4.90;99.90;;;;;;5030202;28;20190;-64
2021/11/26 05:02:05;;;;;;;17.23;15.43;;;5.00;99.90;;;;;;5034950;28;20177;-65
2021/11/26 05:04:30;;;;;;;22.77;14.50;;;5.00;99.90;;;;;;5027377;28;20203;-65
2021/11/26 05:06:56;;;;;;;16.93;15.20;;;5.00;99.90;;;;;;5035084;28;20203;-64
2021/11/26 05:09:22;;;;;;;19.03;15.63;;;4.90;99.90;;;;;;5020182;28;20187;-65
2021/11/26 05:11:48;;;;;;;19.27;14.83;;;4.90;99.90;;;;;;5015280;28;20568;-65
2021/11/26 05:14:18;;;;;;;16.97;14.97;;;4.90;99.90;;;;;;5027290;28;20214;-65
2021/11/26 05:16:44;;;;;;;15.97;14.50;;;4.90;99.90;;;;;;5033258;28;20172;-65
2021/11/26 05:19:10;;;;;;;20.83;15.73;;;4.90;99.90;;;;;;5034836;28;20180;-65
2021/11/26 05:21:35;;;;;;;21.40;15.77;;;4.90;99.90;;;;;;5030856;28;20180;-65
2021/11/26 05:24:01;;;;;;;16.97;15.00;;;4.90;99.90;;;;;;5014511;28;20287;-65
2021/11/26 05:26:26;;;;;;;17.13;15.37;;;4.90;99.90;;;;;;5016272;28;20253;-65
2021/11/26 05:28:52;;;;;;;16.50;14.80;;;4.90;99.90;;;;;;5034064;28;20168;-65
2021/11/26 05:31:21;;;;;;;16.07;13.87;;;4.90;99.90;;;;;;5034495;28;20176;-65
2021/11/26 05:33:48;;;;;;;21.27;15.73;;;4.90;99.90;;;;;;4994751;28;20196;-66
2021/11/26 05:36:14;;;;;;;18.70;15.97;;;4.90;99.90;;;;;;4995160;28;20185;-65
2021/11/26 05:38:40;;;;;;;16.03;14.43;;;4.90;99.90;;;;;;5032112;28;20763;-65
2021/11/26 05:41:05;;;;;;;17.13;14.60;;;4.90;99.90;;;;;;5034584;28;20179;-65
2021/11/26 05:43:31;;;;;;;17.47;15.40;;;4.90;99.90;;;;;;5017003;28;20196;-65
2021/11/26 05:45:57;;;;;;;17.53;15.10;;;4.90;99.90;;;;;;5014131;28;20261;-65
2021/11/26 05:48:22;;;;;;;16.13;14.47;;;4.90;99.90;;;;;;5028088;28;20179;-66
2021/11/26 05:50:48;;;;;;;16.10;14.30;;;5.00;99.90;;;;;;5026026;28;20590;-65
2021/11/26 05:53:14;;;;;;;18.60;16.97;;;4.90;99.90;;;;;;5016221;28;20204;-65
2021/11/26 05:55:40;;;;;;;16.80;14.47;;;4.90;99.90;;;;;;5014219;28;20180;-65
2021/11/26 05:58:06;;;;;;;20.07;17.60;;;4.90;99.90;;;;;;5023772;28;20178;-65
2021/11/26 06:00:32;;;;;;;17.67;15.77;;;4.90;99.90;;;;;;5033573;28;20182;-65
2021/11/26 06:02:58;;;;;;;18.43;16.33;;;4.90;99.90;;;;;;5024241;28;20294;-65
2021/11/26 06:05:25;;;;;;;20.37;15.70;;;4.90;99.90;;;;;;5013858;28;20583;-65
2021/11/26 06:07:51;;;;;;;23.50;15.97;;;5.00;99.90;;;;;;5020785;28;20171;-65
2021/11/26 06:10:17;;;;;;;18.67;15.00;;;5.00;99.90;;;;;;5033731;28;20180;-66
2021/11/26 06:12:46;;;;;;;16.83;15.10;;;5.00;99.90;;;;;;5027872;28;20192;-66
2021/11/26 06:15:14;;;;;;;15.57;14.03;;;5.00;99.90;;;;;;5013773;28;20192;-64
2021/11/26 06:17:41;;;;;;;17.10;13.70;;;4.90;99.90;;;;;;5017901;28;20666;-65
2021/11/26 06:20:08;;;;;;;17.60;13.93;;;4.90;99.90;;;;;;5033630;28;20199;-65
2021/11/26 06:22:34;;;;;;;12.80;11.40;;;4.90;99.90;;;;;;5029753;28;20185;-64
2021/11/26 06:25:00;;;;;;;15.47;12.77;;;4.70;99.90;;;;;;5013797;28;20222;-64
2021/11/26 06:27:25;;;;;;;14.30;12.00;;;4.70;99.90;;;;;;5015563;28;20681;-66
2021/11/26 06:29:51;;;;;;;14.97;12.93;;;4.70;99.90;;;;;;5033385;28;20671;-66
2021/11/26 06:32:17;;;;;;;14.50;12.93;;;4.70;99.90;;;;;;5030789;28;20163;-65
2021/11/26 06:34:43;;;;;;;17.50;12.37;;;4.70;99.90;;;;;;5012148;28;20732;-66
2021/11/26 06:37:08;;;;;;;14.40;12.83;;;4.70;99.90;;;;;;5013375;28;20171;-65
2021/11/26 06:39:34;;;;;;;13.23;12.00;;;4.70;99.90;;;;;;4992616;28;20177;-66
2021/11/26 06:42:01;;;;;;;14.10;12.83;;;4.70;99.90;;;;;;4993748;28;20187;-65
2021/11/26 06:44:26;;;;;;;14.90;12.47;;;4.60;99.90;;;;;;5030798;28;20352;-66
2021/11/26 06:46:52;;;;;;;13.13;11.77;;;4.60;99.90;;;;;;5033600;28;20234;-65
2021/11/26 06:49:17;;;;;;;11.87;10.87;;;4.70;99.90;;;;;;5016889;28;20215;-65
2021/11/26 06:51:43;;;;;;;12.10;11.00;;;4.60;99.90;;;;;;5013548;28;20172;-66
2021/11/26 06:54:09;;;;;;;12.90;11.80;;;4.60;99.90;;;;;;5022414;28;20207;-65
2021/11/26 06:56:35;;;;;;;12.07;10.87;;;4.60;99.90;;;;;;5014881;28;20214;-66
2021/11/26 06:59:03;;;;;;;14.00;12.03;;;4.60;99.90;;;;;;5013678;28;20175;-66
2021/11/26 07:01:29;;;;;;;12.50;11.17;;;4.60;99.90;;;;;;5011958;28;20515;-65
2021/11/26 07:03:55;;;;;;;12.23;11.13;;;4.60;99.90;;;;;;5013675;28;20230;-65
2021/11/26 07:06:21;;;;;;;13.13;11.87;;;4.60;99.90;;;;;;5013431;28;20230;-65
2021/11/26 07:08:48;;;;;;;12.70;11.60;;;4.60;99.90;;;;;;5022343;28;20175;-66
2021/11/26 07:11:13;;;;;;;14.17;12.67;;;4.60;99.90;;;;;;5033219;28;20175;-64
2021/11/26 07:13:39;;;;;;;19.13;13.70;;;4.70;99.90;;;;;;5024674;28;20623;-66
2021/11/26 07:16:05;;;;;;;15.53;13.60;;;4.60;99.90;;;;;;5019557;28;20538;-65
2021/11/26 07:18:31;;;;;;;14.57;13.17;;;4.60;99.90;;;;;;5012117;28;20179;-65
2021/11/26 07:20:56;;;;;;;15.53;14.03;;;4.60;99.90;;;;;;5012442;28;20172;-65
2021/11/26 07:23:22;;;;;;;15.37;13.77;;;4.60;99.90;;;;;;5012258;28;20199;-66
2021/11/26 07:25:48;;;;;;;13.73;11.93;;;4.60;99.90;;;;;;5012798;28;20199;-65
2021/11/26 07:28:14;;;;;;;11.77;10.60;;;4.50;99.90;;;;;;5012841;28;20184;-65
2021/11/26 07:30:40;;;;;;;13.33;9.97;;;4.50;99.90;;;;;;5012571;28;20168;-64
2021/11/26 07:33:06;;;;;;;11.27;10.30;;;4.40;99.90;;;;;;5018466;28;20706;-65
2021/11/26 07:35:32;;;;;;;11.37;10.20;;;4.30;99.90;;;;;;5032115;28;20206;-65
2021/11/26 07:37:58;;;;;;;10.73;9.07;;;4.40;99.90;;;;;;5014413;28;20211;-67
2021/11/26 07:40:23;;;;;;;9.20;8.50;;;4.30;99.90;;;;;;5012556;28;20233;-66
2021/11/26 07:42:49;;;;;;;7.90;7.40;;;4.30;99.90;;;;;;5026422;28;20207;-66
2021/11/26 07:45:15;;;;;;;8.07;7.43;;;4.30;99.90;;;;;;5031964;28;20168;-65
2021/11/26 07:47:42;;;;;;;7.87;7.37;;;4.40;99.90;;;;;;5017145;28;20176;-66
2021/11/26 07:50:08;;;;;;;10.07;8.90;;;4.40;99.90;;;;;;5011063;28;20184;-66
2021/11/26 07:52:36;;;;;;;8.20;7.60;;;4.40;99.90;;;;;;5023959;28;20175;-66
2021/11/26 07:55:02;;;;;;;9.23;8.23;;;4.50;99.90;;;;;;5032028;28;20199;-66
2021/11/26 07:57:27;;;;;;;10.30;9.23;;;4.50;99.90;;;;;;5020110;28;20653;-66
2021/11/26 07:59:53;;;;;;;9.77;8.87;;;4.50;99.90;;;;;;5012297;28;20190;-66
2021/11/26 08:02:19;;;;;;;10.50;9.47;;;4.50;99.90;;;;;;5020641;28;20176;-66
2021/11/26 08:04:44;;;;;;;14.77;10.00;;;4.50;99.90;;;;;;5031372;28;20653;-67
2021/11/26 08:07:10;;;;;;;13.17;10.30;;;4.60;99.90;;;;;;5024164;28;20246;-66
2021/11/26 08:09:36;;;;;;;12.10;10.73;;;4.60;99.90;;;;;;5010250;28;20646;-65
2021/11/26 08:12:02;;;;;;;14.60;12.20;;;4.70;99.90;;;;;;5012999;28;20258;-66
2021/11/26 08:14:28;;;;;;;12.90;11.20;;;4.70;99.90;;;;;;5011933;28;20246;-66
2021/11/26 08:16:55;;;;;;;13.23;11.97;;;4.70;99.90;;;;;;5015563;28;20199;-65
2021/11/26 08:19:22;;;;;;;15.43;12.87;;;4.70;99.90;;;;;;5031442;28;20796;-65
2021/11/26 08:21:48;;;;;;;15.70;13.10;;;4.80;99.90;;;;;;5028833;28;20175;-66
2021/11/26 08:24:15;;;;;;;13.27;12.03;;;4.80;99.90;;;;;;5011690;28;20654;-66
2021/11/26 08:26:42;;;;;;;18.53;13.63;;;4.80;99.90;;;;;;5011708;28;20195;-65
2021/11/26 08:29:10;;;;;;;17.80;14.20;;;4.80;99.90;;;;;;5030727;28;20172;-65
2021/11/26 08:31:36;;;;;;;18.43;14.47;;;4.80;99.90;;;;;;5017235;28;20524;-66
2021/11/26 08:34:03;;;;;;;15.27;13.17;;;4.80;99.90;;;;;;5014140;28;20587;-65
2021/11/26 08:36:28;;;;;;;15.30;12.77;;;4.90;99.90;;;;;;4996621;28;20172;-65
2021/11/26 08:38:56;;;;;;;14.60;13.07;;;4.90;99.90;;;;;;5007444;28;20179;-65
2021/11/26 08:41:22;;;;;;;16.33;13.13;;;4.90;99.90;;;;;;5015621;28;20246;-66
2021/11/26 08:43:48;;;;;;;16.40;13.53;;;5.00;99.90;;;;;;5025497;28;20521;-66
2021/11/26 08:46:15;;;;;;;14.27;12.83;;;5.00;99.90;;;;;;5035330;28;20257;-66
2021/11/26 08:48:41;;;;;;;15.17;13.57;;;4.90;99.90;;;;;;5025695;28;20176;-66
2021/11/26 08:51:08;;;;;;;21.37;14.20;;;5.00;99.90;;;;;;5015485;28;20251;-65
2021/11/26 08:53:36;;;;;;;15.20;12.50;;;5.00;99.90;;;;;;5021217;28;20199;-66
2021/11/26 08:56:02;;;;;;;22.10;15.73;;;5.00;99.90;;;;;;5035134;28;20172;-66
2021/11/26 08:58:27;;;;;;;15.87;14.03;;;4.90;99.90;;;;;;5028754;28;20187;-66
2021/11/26 09:00:53;;;;;;;24.13;13.73;;;5.00;99.90;;;;;;5014160;28;20176;-66
2021/11/26 09:03:19;;;;;;;20.40;14.53;;;5.00;99.90;;;;;;5017249;28;20696;-66
2021/11/26 09:05:44;;;;;;;17.97;14.17;;;5.10;99.90;;;;;;5034477;28;20294;-66
2021/11/26 09:08:16;;;;;;;17.30;13.07;;;5.10;99.90;;;;;;5032500;28;20164;-66
2021/11/26 09:10:47;;;;;;;18.63;13.27;;;5.20;99.90;;;;;;5013630;28;20176;-66
2021/11/26 09:13:15;;;;;;;20.33;12.90;;;5.20;99.90;;;;;;5015115;28;20287;-65
2021/11/26 09:15:41;;;;;;;22.00;13.77;;;5.10;99.90;;;;;;5034297;28;20195;-65
2021/11/26 09:18:09;;;;;;;21.00;12.57;;;5.20;99.90;;;;;;5032706;28;20182;-65
2021/11/26 09:20:35;;;;;;;21.70;12.77;;;5.10;99.90;;;;;;5014704;28;20259;-65
2021/11/26 09:23:01;;;;;;;21.10;12.43;;;5.10;99.90;;;;;;5014353;28;20200;-66
2021/11/26 09:25:27;;;;;;;17.30;13.73;;;5.20;99.90;;;;;;5031783;28;20667;-65
2021/11/26 09:27:54;;;;;;;13.87;12.53;;;5.30;99.90;;;;;;5034447;28;20171;-65
2021/11/26 09:30:21;;;;;;;13.97;12.53;;;5.30;99.90;;;;;;5029556;28;20182;-65
2021/11/26 09:32:47;;;;;;;17.90;12.60;;;5.30;99.90;;;;;;5032424;28;20620;-66
2021/11/26 09:35:14;;;;;;;23.10;13.67;;;5.40;99.90;;;;;;5017289;28;20931;-66
2021/11/26 09:37:40;;;;;;;21.67;13.60;;;5.40;99.90;;;;;;5012845;28;20658;-66
2021/11/26 09:40:09;;;;;;;19.33;13.07;;;5.40;99.90;;;;;;5028200;28;20190;-65
2021/11/26 09:42:36;;;;;;;17.90;13.73;;;5.40;99.90;;;;;;5033811;28;20171;-66
2021/11/26 09:45:02;;;;;;;16.17;13.13;;;5.40;99.90;;;;;;5020444;28;20259;-66
2021/11/26 09:47:28;;;;;;;22.30;13.63;;;5.40;99.90;;;;;;5013963;28;20204;-63
2021/11/26 09:49:54;;;;;;;21.53;12.83;;;5.40;99.90;;;;;;5025377;28;20233;-65
2021/11/26 09:52:20;;;;;;;15.00;12.90;;;5.40;99.90;;;;;;5031752;28;20525;-64
2021/11/26 09:54:47;;;;;;;14.90;12.27;;;5.40;99.90;;;;;;5027473;28;20178;-65
2021/11/26 09:57:14;;;;;;;13.20;11.70;;;5.40;99.90;;;;;;5000373;28;20185;-66
2021/11/26 09:59:42;;;;;;;20.43;12.43;;;5.50;99.90;;;;;;5002466;28;20239;-65
2021/11/26 10:02:19;;;;;;;13.03;11.33;;;5.50;99.90;;;;;;5013878;28;20463;-66
2021/11/26 10:05:00;;;;;;;17.17;12.67;;;5.40;99.90;;;;;;5010100;28;20246;-65
2021/11/26 10:07:26;;;;;;;15.17;12.20;;;5.50;99.90;;;;;;5015993;28;20234;-65
2021/11/26 10:09:52;;;;;;;13.33;11.60;;;5.40;99.90;;;;;;5012012;28;20183;-66
2021/11/26 10:12:18;;;;;;;18.17;12.57;;;5.50;99.90;;;;;;5015235;28;20264;-65
2021/11/26 10:14:46;;;;;;;14.00;11.43;;;5.40;99.90;;;;;;5015947;28;20208;-66
2021/11/26 10:17:23;;;;;;;12.30;11.07;;;5.40;99.90;;;;;;5012450;28;20180;-65
2021/11/26 10:20:06;;;;;;;13.10;11.83;;;5.50;99.90;;;;;;5012195;28;20211;-66
2021/11/26 10:22:40;;;;;;;12.27;11.03;;;5.50;99.90;;;;;;5013176;28;20513;-66
2021/11/26 10:25:11;;;;;;;13.00;11.70;;;5.50;99.90;;;;;;5013654;28;20172;-65
2021/11/26 10:27:55;;;;;;;13.20;11.80;;;5.50;99.90;;;;;;5012308;28;20246;-65
2021/11/26 10:30:29;;;;;;;11.03;9.90;;;5.40;99.90;;;;;;5013336;28;20676;-64
2021/11/26 10:33:32;;;;;;;12.80;10.53;;;5.50;99.90;;;;;;5013010;28;20609;-65
2021/11/26 10:36:01;;;;;;;10.93;9.83;;;5.50;99.90;;;;;;4933281;29;20178;-66
2021/11/26 10:38:35;;;;;;;15.27;9.90;;;5.50;99.90;;;;;;4983067;28;20189;-66
2021/11/26 10:41:07;;;;;;;16.23;9.77;;;5.50;99.90;;;;;;4993753;28;20183;-65
2021/11/26 10:51:41;;;;;;;10.23;8.83;;;5.40;99.90;;;;;;4994045;28;20181;-66
2021/11/26 10:59:30;;;;;;;9.60;8.80;;;5.40;99.90;;;;;;4993487;28;20181;-66
2021/11/26 11:01:56;;;;;;;16.73;9.83;;;5.50;99.90;;;;;;4991911;28;20177;-66
2021/11/26 11:04:24;;;;;;;10.93;9.10;;;5.50;99.90;;;;;;4991822;28;20250;-66
2021/11/26 11:07:02;;;;;;;9.80;8.90;;;5.60;99.90;;;;;;4991808;28;20200;-66
2021/11/26 11:09:42;;;;;;;10.20;9.47;;;5.60;99.90;;;;;;4991824;28;20312;-65
2021/11/26 11:12:09;;;;;;;9.73;9.03;;;5.70;99.90;;;;;;4993130;28;20169;-66
2021/11/26 11:14:35;;;;;;;8.87;7.97;;;5.70;99.90;;;;;;4993272;28;20581;-65
2021/11/26 11:17:01;;;;;;;10.17;9.07;;;5.80;99.90;;;;;;4993022;28;20176;-66
2021/11/26 11:19:27;;;;;;;9.40;8.50;;;5.80;99.90;;;;;;4993051;28;20177;-65
2021/11/26 11:21:56;;;;;;;9.30;8.43;;;5.80;99.90;;;;;;4992865;28;20268;-66
2021/11/26 11:24:24;;;;;;;9.83;8.83;;;5.90;99.90;;;;;;4992943;28;20189;-66
2021/11/26 11:26:50;;;;;;;9.13;8.40;;;5.80;99.90;;;;;;4992778;28;20721;-65
2021/11/26 11:29:20;;;;;;;8.70;8.00;;;5.90;99.90;;;;;;4991928;28;20203;-66
2021/11/26 11:31:46;;;;;;;8.23;7.47;;;5.80;99.90;;;;;;5007934;28;20230;-66
2021/11/26 11:34:14;;;;;;;8.70;8.00;;;5.80;99.90;;;;;;5018588;28;20242;-66
2021/11/26 11:36:42;;;;;;;8.40;7.80;;;5.80;99.90;;;;;;5012354;28;20171;-66
2021/11/26 11:39:08;;;;;;;8.63;8.13;;;5.80;99.90;;;;;;5009618;28;20176;-66
2021/11/26 11:41:56;;;;;;;8.77;8.07;;;5.90;99.90;;;;;;5012607;28;20176;-66
2021/11/26 11:44:29;;;;;;;8.03;7.20;;;5.90;99.90;;;;;;5023471;28;20203;-66
2021/11/26 11:46:56;;;;;;;8.33;7.53;;;5.90;99.90;;;;;;5021565;28;20204;-66
2021/11/26 11:49:24;;;;;;;8.30;7.60;;;5.90;99.90;;;;;;5012016;28;20608;-66
2021/11/26 11:51:50;;;;;;;10.03;7.50;;;5.90;99.90;;;;;;5012976;28;20175;-66
2021/11/26 11:54:15;;;;;;;7.60;7.10;;;6.00;99.90;;;;;;5011843;28;20563;-65
2021/11/26 11:56:45;;;;;;;8.63;7.80;;;6.20;99.90;;;;;;5015617;28;20180;-66
2021/11/26 11:59:24;;;;;;;8.10;7.53;;;6.20;99.90;;;;;;5020156;28;20184;-66
2021/11/26 12:01:49;;;;;;;8.10;7.43;;;6.30;99.90;;;;;;5012092;28;20187;-66
2021/11/26 12:04:18;;;;;;;8.23;7.73;;;6.30;99.90;;;;;;5011888;28;20196;-66
2021/11/26 12:06:47;;;;;;;7.73;7.33;;;6.30;99.90;;;;;;5011118;28;20207;-65
2021/11/26 12:09:24;;;;;;;7.57;6.97;;;6.20;99.90;;;;;;5012653;28;20168;-66
2021/11/26 12:11:55;;;;;;;8.80;7.73;;;6.20;99.90;;;;;;5017708;28;20168;-65
2021/11/26 12:14:22;;;;;;;7.90;7.40;;;6.20;99.90;;;;;;5010260;28;20626;-66
2021/11/26 12:19:39;;;;;;;7.50;7.10;;;6.30;99.90;;;;;;5021930;28;20245;-65
2021/11/26 12:22:08;;;;;;;8.00;7.50;;;6.30;99.90;;;;;;5011338;28;20172;-66
2021/11/26 12:24:38;;;;;;;7.50;7.00;;;6.30;99.90;;;;;;5017026;28;20372;-66
2021/11/26 12:27:06;;;;;;;10.20;7.73;;;6.30;99.90;;;;;;5024167;28;20298;-66
2021/11/26 12:29:48;;;;;;;8.47;7.77;;;6.30;99.90;;;;;;5031192;28;20174;-66
2021/11/26 12:32:27;;;;;;;10.00;9.07;;;6.40;99.90;;;;;;5025445;28;20179;-65
2021/11/26 12:34:58;;;;;;;8.93;8.37;;;6.50;99.90;;;;;;5031252;28;20179;-65
2021/11/26 12:37:28;;;;;;;8.33;7.90;;;6.60;99.90;;;;;;5012086;28;20537;-66
2021/11/26 12:40:01;;;;;;;8.47;8.07;;;6.60;99.90;;;;;;5012011;28;20252;-66
2021/11/26 12:42:27;;;;;;;9.70;7.47;;;6.70;99.90;;;;;;5029786;28;20266;-66
2021/11/26 12:45:06;;;;;;;8.50;7.90;;;6.70;99.90;;;;;;5016445;28;20184;-66
2021/11/26 12:47:35;;;;;;;7.53;7.07;;;6.70;99.90;;;;;;5029906;28;20259;-66
2021/11/26 12:53:07;;;;;;;7.53;7.03;;;6.70;99.90;;;;;;4991613;28;20203;-66
2021/11/26 12:55:35;;;;;;;7.97;7.20;;;6.60;99.90;;;;;;4996776;28;20194;-64
2021/11/26 12:58:02;;;;;;;6.93;6.33;;;6.60;99.90;;;;;;5030974;28;20637;-66
2021/11/26 13:00:28;;;;;;;7.00;6.60;;;6.50;99.90;;;;;;5029253;28;20175;-65
2021/11/26 13:03:07;;;;;;;6.93;6.53;;;6.40;99.90;;;;;;5030968;28;20191;-66